Baldwin, North Dakota
Current Conditions -  °F | °C
As of 10:52 AM on Sunday 23 Nov 2014 (Local Time) from KBIS Reporting Station
Overcast Overcast  
Wind Chill: 15°   Ceiling: 2500
Heat Index: 29°   Visibility: 10mi
Dew Point: 19°   Wind: 23mph
Humidity: 67%   Direction: 290°WNW
Pressure: 29.55"   Gusts: 32mph
Location:  47.02°N, 100.75°W
Report Text: KBIS 231652Z 29020G28KT 10SM OVC025 M02/M07 A2955 RMK AO2 PK WND 30034/1607 SLP026 T10171072
Loading
Personal Weather Stations






























Interactive Weather Map New forecast layout! Learn more

10-Day Weather Forecast

Advertisements
Track Severe Weather on mobile